createdAt,value
2022-12-13T00:01:35.429Z,1010.03
2022-12-13T00:03:35.511Z,1010.03
2022-12-13T00:05:35.509Z,1010.04
2022-12-13T00:07:35.420Z,1010.00
2022-12-13T00:09:35.502Z,1010.02
2022-12-13T00:11:35.442Z,1010.02
2022-12-13T00:13:35.473Z,1010.02
2022-12-13T00:15:46.168Z,1009.96
2022-12-13T00:17:46.194Z,1009.94
2022-12-13T00:19:46.158Z,1009.90
2022-12-13T00:21:46.249Z,1009.90
2022-12-13T00:23:46.140Z,1009.90
2022-12-13T00:25:46.154Z,1009.86
2022-12-13T00:27:46.174Z,1009.86
2022-12-13T00:29:46.158Z,1009.82
2022-12-13T00:31:59.918Z,1009.82
2022-12-13T00:33:46.188Z,1009.73
2022-12-13T00:35:46.170Z,1009.64
2022-12-13T00:37:46.150Z,1009.62
2022-12-13T00:39:46.149Z,1009.61
2022-12-13T00:41:46.157Z,1009.61
2022-12-13T00:43:46.166Z,1009.67
2022-12-13T00:45:46.216Z,1009.71
2022-12-13T00:47:46.172Z,1009.72
2022-12-13T00:49:46.161Z,1009.72
2022-12-13T00:51:46.170Z,1009.65
2022-12-13T00:53:46.262Z,1009.65
2022-12-13T00:55:46.154Z,1009.59
2022-12-13T00:57:46.172Z,1009.58
2022-12-13T00:59:46.163Z,1009.58
2022-12-13T01:01:46.230Z,1009.58
2022-12-13T01:03:46.198Z,1009.52
2022-12-13T01:06:14.148Z,1009.53
2022-12-13T01:07:46.173Z,1009.53
2022-12-13T01:09:46.283Z,1009.53
2022-12-13T01:11:46.153Z,1009.48
2022-12-13T01:13:46.169Z,1009.46
2022-12-13T01:15:46.199Z,1009.45
2022-12-13T01:17:46.165Z,1009.45
2022-12-13T01:19:46.239Z,1009.42
2022-12-13T01:21:46.179Z,1009.44
2022-12-13T01:23:46.212Z,1009.49
2022-12-13T01:25:46.185Z,1009.48
2022-12-13T01:28:16.182Z,1009.48
2022-12-13T01:30:16.198Z,1009.46
2022-12-13T01:32:16.195Z,1009.46
2022-12-13T01:34:16.219Z,1009.46
2022-12-13T01:36:16.245Z,1009.43
2022-12-13T01:38:16.389Z,1009.43
2022-12-13T01:40:16.619Z,1009.47
2022-12-13T01:42:16.194Z,1009.46
2022-12-13T01:44:16.195Z,1009.42
2022-12-13T01:46:16.231Z,1009.42
2022-12-13T01:48:16.248Z,1009.38
2022-12-13T01:50:16.180Z,1009.37
2022-12-13T01:52:16.178Z,1009.35
2022-12-13T01:54:21.202Z,1009.35
2022-12-13T01:56:16.203Z,1009.35
2022-12-13T01:58:16.195Z,1009.37
2022-12-13T02:00:16.225Z,1009.34
2022-12-13T02:02:16.242Z,1009.32
2022-12-13T02:04:16.190Z,1009.30
2022-12-13T02:06:16.210Z,1009.30
2022-12-13T02:08:16.220Z,1009.24
2022-12-13T02:10:16.192Z,1009.22
2022-12-13T02:12:16.212Z,1009.16
2022-12-13T02:14:16.201Z,1009.16
2022-12-13T02:16:22.568Z,1009.16
2022-12-13T02:18:16.197Z,1009.11
2022-12-13T02:20:21.386Z,1009.10
2022-12-13T02:22:16.199Z,1009.13
2022-12-13T02:24:16.210Z,1009.13
2022-12-13T02:26:16.211Z,1009.15
2022-12-13T02:28:30.212Z,1009.13
2022-12-13T02:30:16.191Z,1009.09
2022-12-13T02:32:16.209Z,1009.07
2022-12-13T02:34:16.204Z,1009.07
2022-12-13T02:36:16.227Z,1009.03
2022-12-13T02:38:21.455Z,1009.03
2022-12-13T02:40:16.243Z,1009.03
2022-12-13T02:42:21.655Z,1008.97
2022-12-13T02:44:22.152Z,1008.97
2022-12-13T02:46:16.260Z,1008.94
2022-12-13T02:48:16.203Z,1008.96
2022-12-13T02:50:16.221Z,1008.99
2022-12-13T02:52:22.373Z,1008.99
2022-12-13T02:54:16.237Z,1009.04
2022-12-13T02:56:16.210Z,1009.04
2022-12-13T02:58:16.304Z,1008.96
2022-12-13T03:00:16.239Z,1008.91
2022-12-13T03:02:21.457Z,1008.91
2022-12-13T03:04:16.288Z,1008.90
2022-12-13T03:06:16.206Z,1008.85
2022-12-13T03:08:16.258Z,1008.88
2022-12-13T03:10:16.352Z,1008.90
2022-12-13T03:12:16.231Z,1008.90
2022-12-13T03:14:16.223Z,1008.86
2022-12-13T03:16:46.265Z,1008.81
2022-12-13T03:18:46.224Z,1008.78
2022-12-13T03:20:46.219Z,1008.77
2022-12-13T03:22:46.240Z,1008.79
2022-12-13T03:24:46.231Z,1008.79
2022-12-13T03:26:46.222Z,1008.78
2022-12-13T03:28:46.242Z,1008.78
2022-12-13T03:30:46.237Z,1008.78
2022-12-13T03:32:46.219Z,1008.79
2022-12-13T03:34:48.606Z,1008.79
2022-12-13T03:36:46.224Z,1008.79
2022-12-13T03:38:46.217Z,1008.66
2022-12-13T03:40:46.243Z,1008.65
2022-12-13T03:42:46.241Z,1008.71
2022-12-13T03:44:46.222Z,1008.71
2022-12-13T03:46:46.280Z,1008.70
2022-12-13T03:48:46.223Z,1008.69
2022-12-13T03:50:46.236Z,1008.63
2022-12-13T03:52:46.274Z,1008.63
2022-12-13T03:54:46.351Z,1008.64
2022-12-13T03:56:46.294Z,1008.58
2022-12-13T03:58:46.272Z,1008.61
2022-12-13T04:00:46.226Z,1008.53
2022-12-13T04:02:46.298Z,1008.53
2022-12-13T04:04:46.219Z,1008.50
2022-12-13T04:06:46.239Z,1008.51
2022-12-13T04:08:46.305Z,1008.46
2022-12-13T04:10:46.265Z,1008.43
2022-12-13T04:12:48.498Z,1008.43
2022-12-13T04:14:46.257Z,1008.47
2022-12-13T04:16:46.244Z,1008.47
2022-12-13T04:18:46.310Z,1008.49
2022-12-13T04:20:46.291Z,1008.49
2022-12-13T04:22:46.245Z,1008.48
2022-12-13T04:24:46.249Z,1008.45
2022-12-13T04:26:46.258Z,1008.42
2022-12-13T04:28:52.562Z,1008.42
2022-12-13T04:30:46.259Z,1008.42
2022-12-13T04:32:46.325Z,1008.37
2022-12-13T04:34:46.288Z,1008.37
2022-12-13T04:36:46.260Z,1008.42
2022-12-13T04:38:46.255Z,1008.44
2022-12-13T04:40:46.250Z,1008.44
2022-12-13T04:42:46.289Z,1008.42
2022-12-13T04:44:46.418Z,1008.48
2022-12-13T04:46:46.262Z,1008.52
2022-12-13T04:48:46.360Z,1008.52
2022-12-13T04:50:46.277Z,1008.44
2022-12-13T04:52:46.260Z,1008.41
2022-12-13T04:54:46.254Z,1008.49
2022-12-13T04:56:46.266Z,1008.49
2022-12-13T04:58:46.295Z,1008.49
2022-12-13T05:00:46.353Z,1008.49
2022-12-13T05:03:16.263Z,1008.39
2022-12-13T05:05:16.613Z,1008.32
2022-12-13T05:07:16.378Z,1008.28
2022-12-13T05:09:16.272Z,1008.28
2022-12-13T05:11:16.290Z,1008.29
2022-12-13T05:13:16.278Z,1008.26
2022-12-13T05:15:16.576Z,1008.20
2022-12-13T05:17:16.285Z,1008.20
2022-12-13T05:19:16.354Z,1008.20
2022-12-13T05:21:16.283Z,1008.15
2022-12-13T05:23:22.546Z,1008.16
2022-12-13T05:25:16.579Z,1008.17
2022-12-13T05:27:23.713Z,1008.17
2022-12-13T05:29:16.365Z,1008.09
2022-12-13T05:31:22.287Z,1008.12
2022-12-13T05:33:16.353Z,1008.16
2022-12-13T05:35:22.423Z,1008.17
2022-12-13T05:37:16.313Z,1008.17
2022-12-13T05:39:28.443Z,1008.17
2022-12-13T05:41:16.307Z,1008.11
2022-12-13T05:43:21.642Z,1008.08
2022-12-13T05:45:16.722Z,1008.09
2022-12-13T05:47:16.370Z,1008.09
2022-12-13T05:49:16.407Z,1008.10
2022-12-13T05:51:16.417Z,1008.05
2022-12-13T05:53:16.301Z,1008.09
2022-12-13T05:55:16.612Z,1008.09
2022-12-13T05:57:16.303Z,1008.04
2022-12-13T05:59:16.415Z,1008.07
2022-12-13T06:01:16.402Z,1008.02
2022-12-13T06:03:16.388Z,1007.99
2022-12-13T06:05:16.734Z,1007.99
2022-12-13T06:07:16.287Z,1008.00
2022-12-13T06:09:16.308Z,1007.99
2022-12-13T06:11:31.564Z,1008.06
2022-12-13T06:13:31.660Z,1008.11
2022-12-13T06:15:21.800Z,1008.11
2022-12-13T06:17:16.482Z,1008.14
2022-12-13T06:19:16.301Z,1008.14
2022-12-13T06:21:16.284Z,1008.20
2022-12-13T06:23:16.291Z,1008.20
2022-12-13T06:25:30.510Z,1008.17
2022-12-13T06:27:16.285Z,1008.17
2022-12-13T06:29:24.324Z,1008.13
2022-12-13T06:31:16.347Z,1008.12
2022-12-13T06:33:23.679Z,1008.12
2022-12-13T06:35:29.932Z,1008.15
2022-12-13T06:37:16.303Z,1008.13
2022-12-13T06:39:16.304Z,1008.18
2022-12-13T06:41:16.314Z,1008.22
2022-12-13T06:43:16.330Z,1008.22
2022-12-13T06:45:16.299Z,1008.23
2022-12-13T06:47:31.325Z,1008.23
2022-12-13T06:49:16.341Z,1008.21
2022-12-13T06:51:46.308Z,1008.19
2022-12-13T06:53:46.314Z,1008.17
2022-12-13T06:55:46.313Z,1008.17
2022-12-13T06:57:46.355Z,1008.17
2022-12-13T06:59:46.354Z,1008.17
2022-12-13T07:01:50.643Z,1008.14
2022-12-13T07:03:46.316Z,1008.18
2022-12-13T07:05:46.362Z,1008.18
2022-12-13T07:07:46.330Z,1008.24
2022-12-13T07:09:46.342Z,1008.33
2022-12-13T07:11:51.705Z,1008.38
2022-12-13T07:13:46.375Z,1008.43
2022-12-13T07:15:27.091Z,1008.43
2022-12-13T07:17:33.306Z,1008.45
2022-12-13T07:19:27.028Z,1008.48
2022-12-13T07:21:27.072Z,1008.46
2022-12-13T07:23:27.046Z,1008.46
2022-12-13T07:25:29.226Z,1008.46
2022-12-13T07:27:27.059Z,1008.43
2022-12-13T07:29:57.022Z,1008.40
2022-12-13T07:32:00.988Z,1008.42
2022-12-13T07:33:57.026Z,1008.42
2022-12-13T07:35:57.035Z,1008.34
2022-12-13T07:37:57.028Z,1008.40
2022-12-13T07:40:02.934Z,1008.40
2022-12-13T07:41:57.128Z,1008.40
2022-12-13T07:43:57.034Z,1008.40
2022-12-13T07:45:57.068Z,1008.34
2022-12-13T07:47:57.028Z,1008.28
2022-12-13T07:49:57.046Z,1008.30
2022-12-13T07:51:57.025Z,1008.30
2022-12-13T07:53:57.054Z,1008.32
2022-12-13T07:55:57.044Z,1008.30
2022-12-13T07:57:57.059Z,1008.31
2022-12-13T07:59:57.039Z,1008.32
2022-12-13T08:01:57.068Z,1008.32
2022-12-13T08:03:57.077Z,1008.36
2022-12-13T08:05:58.563Z,1008.36
2022-12-13T08:07:57.075Z,1008.41
2022-12-13T08:09:57.055Z,1008.41
2022-12-13T08:11:57.052Z,1008.41
2022-12-13T08:13:57.061Z,1008.47
2022-12-13T08:15:57.126Z,1008.52
2022-12-13T08:17:57.070Z,1008.40
2022-12-13T08:19:57.053Z,1008.40
2022-12-13T08:21:58.756Z,1008.40
2022-12-13T08:23:57.082Z,1008.44
2022-12-13T08:25:57.138Z,1008.41
2022-12-13T08:28:01.981Z,1008.44
2022-12-13T08:29:57.047Z,1008.44
2022-12-13T08:31:57.054Z,1008.44
2022-12-13T08:33:57.137Z,1008.47
2022-12-13T08:35:57.083Z,1008.54
2022-12-13T08:37:57.050Z,1008.60
2022-12-13T08:39:57.093Z,1008.60
2022-12-13T08:41:57.180Z,1008.63
2022-12-13T08:43:57.045Z,1008.66
2022-12-13T08:46:01.118Z,1008.72
2022-12-13T08:47:57.046Z,1008.72
2022-12-13T08:50:02.108Z,1008.71
2022-12-13T08:51:57.094Z,1008.68
2022-12-13T08:54:10.764Z,1008.60
2022-12-13T08:55:57.065Z,1008.46
2022-12-13T08:57:57.059Z,1008.46
2022-12-13T08:59:57.095Z,1008.55
2022-12-13T09:02:03.015Z,1008.55
2022-12-13T09:03:57.073Z,1008.63
2022-12-13T09:05:57.069Z,1008.59
2022-12-13T09:07:57.111Z,1008.59
2022-12-13T09:09:57.062Z,1008.59
2022-12-13T09:11:59.583Z,1008.65
2022-12-13T09:14:01.243Z,1008.65
2022-12-13T09:16:01.552Z,1008.65
2022-12-13T09:17:57.091Z,1008.65
2022-12-13T09:20:29.093Z,1008.58
2022-12-13T09:22:33.838Z,1008.51
2022-12-13T09:24:27.074Z,1008.49
2022-12-13T09:26:27.107Z,1008.48
2022-12-13T09:28:27.094Z,1008.51
2022-12-13T09:30:31.657Z,1008.51
2022-12-13T09:32:27.128Z,1008.44
2022-12-13T09:34:27.177Z,1008.44
2022-12-13T09:36:27.101Z,1008.48
2022-12-13T09:38:27.100Z,1008.47
2022-12-13T09:40:27.087Z,1008.47
2022-12-13T09:42:30.860Z,1008.47
2022-12-13T09:44:32.544Z,1008.41
2022-12-13T09:46:27.133Z,1008.36
2022-12-13T09:48:27.273Z,1008.36
2022-12-13T09:50:27.121Z,1008.35
2022-12-13T09:52:33.444Z,1008.36
2022-12-13T09:54:27.090Z,1008.31
2022-12-13T09:56:27.091Z,1008.27
2022-12-13T09:58:27.082Z,1008.27
2022-12-13T10:00:27.110Z,1008.34
2022-12-13T10:02:27.192Z,1008.35
2022-12-13T10:04:27.146Z,1008.36
2022-12-13T10:06:27.147Z,1008.34
2022-12-13T10:08:27.094Z,1008.34
2022-12-13T10:10:27.111Z,1008.34
2022-12-13T10:12:27.123Z,1008.33
2022-12-13T10:14:27.110Z,1008.35
2022-12-13T10:16:27.140Z,1008.26
2022-12-13T10:18:27.118Z,1008.26
2022-12-13T10:20:27.103Z,1008.22
2022-12-13T10:22:27.145Z,1008.22
2022-12-13T10:24:33.056Z,1008.23
2022-12-13T10:26:27.134Z,1008.23
2022-12-13T10:28:27.140Z,1008.23
2022-12-13T10:30:29.222Z,1008.21
2022-12-13T10:32:27.127Z,1008.21
2022-12-13T10:34:27.107Z,1008.21
2022-12-13T10:36:27.143Z,1008.21
2022-12-13T10:38:31.677Z,1008.17
2022-12-13T10:40:32.000Z,1008.12
2022-12-13T10:42:33.619Z,1008.08
2022-12-13T10:44:27.122Z,1008.11
2022-12-13T10:46:27.182Z,1008.11
2022-12-13T10:48:27.114Z,1008.09
2022-12-13T10:50:27.302Z,1008.12
2022-12-13T10:52:31.561Z,1008.12
2022-12-13T10:54:27.121Z,1008.12
2022-12-13T10:56:27.103Z,1008.09
2022-12-13T10:58:27.153Z,1008.05
2022-12-13T11:00:27.181Z,1007.98
2022-12-13T11:02:27.195Z,1007.98
2022-12-13T11:04:28.189Z,1007.98
2022-12-13T11:06:27.112Z,1007.89
2022-12-13T11:08:27.418Z,1007.89
2022-12-13T11:10:27.841Z,1007.91
2022-12-13T11:14:57.118Z,1007.92
2022-12-13T11:16:57.179Z,1007.93
2022-12-13T11:18:57.118Z,1007.95
2022-12-13T11:20:57.194Z,1007.96
2022-12-13T11:22:57.134Z,1007.96
2022-12-13T11:24:57.158Z,1008.01
2022-12-13T11:26:57.128Z,1007.98
2022-12-13T11:28:57.163Z,1007.85
2022-12-13T11:30:57.143Z,1007.82
2022-12-13T11:32:59.237Z,1007.82
2022-12-13T11:34:57.172Z,1007.80
2022-12-13T11:36:57.223Z,1007.82
2022-12-13T11:38:57.981Z,1007.77
2022-12-13T11:40:57.131Z,1007.79
2022-12-13T11:42:57.271Z,1007.79
2022-12-13T11:44:57.167Z,1007.79
2022-12-13T11:46:57.170Z,1007.72
2022-12-13T11:48:57.242Z,1007.69
2022-12-13T11:50:57.183Z,1007.69
2022-12-13T11:52:57.181Z,1007.67
2022-12-13T11:54:57.243Z,1007.68
2022-12-13T11:57:00.276Z,1007.59
2022-12-13T11:59:04.962Z,1007.55
2022-12-13T12:00:57.147Z,1007.55
2022-12-13T12:02:57.187Z,1007.51
2022-12-13T12:05:00.900Z,1007.53
2022-12-13T12:06:57.151Z,1007.53
2022-12-13T12:08:57.446Z,1007.50
2022-12-13T12:10:57.151Z,1007.50
2022-12-13T12:12:57.134Z,1007.42
2022-12-13T12:14:57.167Z,1007.40
2022-12-13T12:16:57.171Z,1007.40
2022-12-13T12:19:01.485Z,1007.40
2022-12-13T12:20:57.143Z,1007.40
2022-12-13T12:22:57.179Z,1007.39
2022-12-13T12:24:57.135Z,1007.39
2022-12-13T12:26:57.274Z,1007.44
2022-12-13T12:28:57.178Z,1007.44
2022-12-13T12:30:57.273Z,1007.34
2022-12-13T12:32:57.150Z,1007.42
2022-12-13T12:34:57.197Z,1007.39
2022-12-13T12:36:57.173Z,1007.38
2022-12-13T12:38:57.313Z,1007.38
2022-12-13T12:41:15.563Z,1007.39
2022-12-13T12:43:14.123Z,1007.47
2022-12-13T12:44:57.195Z,1007.53
2022-12-13T12:47:18.911Z,1007.56
2022-12-13T12:49:01.645Z,1007.56
2022-12-13T12:50:57.160Z,1007.56
2022-12-13T12:52:57.287Z,1007.58
2022-12-13T12:54:57.375Z,1007.57
2022-12-13T12:56:57.161Z,1007.57
2022-12-13T12:58:57.194Z,1007.61
2022-12-13T13:00:57.161Z,1007.61
2022-12-13T13:02:57.301Z,1007.57
2022-12-13T13:04:57.257Z,1007.57
2022-12-13T13:07:27.292Z,1007.64
2022-12-13T13:09:27.278Z,1007.57
2022-12-13T13:11:27.309Z,1007.57
2022-12-13T13:13:33.028Z,1007.44
2022-12-13T13:15:28.291Z,1007.45
2022-12-13T13:17:27.280Z,1007.47
2022-12-13T13:19:27.256Z,1007.48
2022-12-13T13:21:27.324Z,1007.48
2022-12-13T13:23:39.750Z,1007.40
2022-12-13T13:25:27.180Z,1007.34
2022-12-13T13:27:27.291Z,1007.27
2022-12-13T13:29:28.641Z,1007.27
2022-12-13T13:31:27.281Z,1007.27
2022-12-13T13:33:27.630Z,1007.21
2022-12-13T13:35:27.285Z,1007.11
2022-12-13T13:37:27.287Z,1007.09
2022-12-13T13:39:27.209Z,1007.09
2022-12-13T13:41:27.218Z,1007.13
2022-12-13T13:43:31.876Z,1007.09
2022-12-13T13:45:27.270Z,1007.09
2022-12-13T13:47:27.270Z,1007.20
2022-12-13T13:49:31.552Z,1007.20
2022-12-13T13:51:27.288Z,1007.20
2022-12-13T13:53:27.679Z,1007.23
2022-12-13T13:55:27.338Z,1007.24
2022-12-13T13:57:45.588Z,1007.24
2022-12-13T13:59:27.305Z,1007.31
2022-12-13T14:01:27.214Z,1007.31
2022-12-13T14:03:33.495Z,1007.31
2022-12-13T14:05:27.291Z,1007.37
2022-12-13T14:07:27.327Z,1007.37
2022-12-13T14:09:27.322Z,1007.34
2022-12-13T14:11:27.368Z,1007.38
2022-12-13T14:13:27.799Z,1007.49
2022-12-13T14:15:27.269Z,1007.55
2022-12-13T14:17:27.245Z,1007.55
2022-12-13T14:19:27.364Z,1007.51
2022-12-13T14:21:27.317Z,1007.50
2022-12-13T14:23:27.757Z,1007.47
2022-12-13T14:25:27.306Z,1007.47
2022-12-13T14:31:45.728Z,1007.38
2022-12-13T14:33:47.243Z,1007.35
2022-12-13T14:35:45.742Z,1007.35
2022-12-13T14:37:45.693Z,1007.31
2022-12-13T14:39:45.842Z,1007.34
2022-12-13T14:41:45.676Z,1007.38
2022-12-13T14:43:49.962Z,1007.39
2022-12-13T14:45:45.711Z,1007.39
2022-12-13T14:47:45.640Z,1007.36
2022-12-13T14:49:48.706Z,1007.32
2022-12-13T14:51:45.667Z,1007.41
2022-12-13T14:53:45.761Z,1007.41
2022-12-13T14:55:45.682Z,1007.27
2022-12-13T14:57:45.650Z,1007.25
2022-12-13T14:59:48.510Z,1007.23
2022-12-13T15:01:45.779Z,1007.23
2022-12-13T15:03:45.796Z,1007.23
2022-12-13T15:05:50.463Z,1007.37
2022-12-13T15:07:45.663Z,1007.37
2022-12-13T15:09:45.661Z,1007.41
2022-12-13T15:11:45.674Z,1007.37
2022-12-13T15:13:45.691Z,1007.37
2022-12-13T15:15:45.667Z,1007.35
2022-12-13T15:17:45.675Z,1007.29
2022-12-13T15:19:48.757Z,1007.35
2022-12-13T15:21:45.692Z,1007.31
2022-12-13T15:23:48.746Z,1007.31
2022-12-13T15:25:45.697Z,1007.25
2022-12-13T15:27:48.438Z,1007.28
2022-12-13T15:29:45.772Z,1007.33
2022-12-13T15:31:49.159Z,1007.33
2022-12-13T15:33:48.523Z,1007.32
2022-12-13T15:35:48.085Z,1007.30
2022-12-13T15:37:45.655Z,1007.22
2022-12-13T15:39:48.177Z,1007.16
2022-12-13T15:41:45.854Z,1007.16
2022-12-13T15:43:45.710Z,1007.11
2022-12-13T15:45:45.780Z,1007.15
2022-12-13T15:47:45.665Z,1007.15
2022-12-13T15:49:45.683Z,1007.15
2022-12-13T15:51:45.679Z,1007.15
2022-12-13T15:53:45.796Z,1007.11
2022-12-13T15:55:45.774Z,1007.02
2022-12-13T15:57:45.681Z,1006.98
2022-12-13T15:59:45.664Z,1006.98
2022-12-13T16:01:45.809Z,1006.99
2022-12-13T16:04:15.961Z,1006.98
2022-12-13T16:06:15.691Z,1006.97
2022-12-13T16:08:15.781Z,1006.94
2022-12-13T16:10:15.691Z,1006.94
2022-12-13T16:12:15.690Z,1006.90
2022-12-13T16:14:25.831Z,1006.88
2022-12-13T16:16:18.439Z,1006.84
2022-12-13T16:18:15.687Z,1006.78
2022-12-13T16:20:15.740Z,1006.78
2022-12-13T16:22:15.698Z,1006.78
2022-12-13T16:24:15.713Z,1006.81
2022-12-13T16:26:15.703Z,1006.68
2022-12-13T16:28:15.995Z,1006.68
2022-12-13T16:30:15.774Z,1006.68
2022-12-13T16:32:15.849Z,1006.57
2022-12-13T16:34:15.772Z,1006.60
2022-12-13T16:36:15.713Z,1006.60
2022-12-13T16:38:26.064Z,1006.60
2022-12-13T16:40:15.732Z,1006.49
2022-12-13T16:42:15.985Z,1006.52
2022-12-13T16:44:15.778Z,1006.42
2022-12-13T16:47:14.342Z,1006.45
2022-12-13T16:48:15.786Z,1006.45
2022-12-13T16:50:15.807Z,1006.47
2022-12-13T16:52:15.735Z,1006.54
2022-12-13T16:54:15.858Z,1006.45
2022-12-13T16:56:15.771Z,1006.45
2022-12-13T16:58:15.913Z,1006.57
2022-12-13T17:00:15.963Z,1006.60
2022-12-13T17:02:15.879Z,1006.61
2022-12-13T17:04:19.933Z,1006.64
2022-12-13T17:06:15.871Z,1006.64
2022-12-13T17:08:15.952Z,1006.68
2022-12-13T17:10:15.892Z,1006.68
2022-12-13T17:12:15.786Z,1006.63
2022-12-13T17:14:15.776Z,1006.59
2022-12-13T17:16:15.844Z,1006.59
2022-12-13T17:18:15.912Z,1006.57
2022-12-13T17:20:15.928Z,1006.50
2022-12-13T17:22:15.759Z,1006.44
2022-12-13T17:24:16.041Z,1006.48
2022-12-13T17:26:15.770Z,1006.48
2022-12-13T17:28:15.751Z,1006.44
2022-12-13T17:30:15.792Z,1006.43
2022-12-13T17:32:15.973Z,1006.42
2022-12-13T17:34:15.863Z,1006.42
2022-12-13T17:36:15.809Z,1006.38
2022-12-13T17:38:15.984Z,1006.36
2022-12-13T17:40:15.747Z,1006.35
2022-12-13T17:42:15.779Z,1006.34
2022-12-13T17:44:15.786Z,1006.34
2022-12-13T17:46:15.870Z,1006.37
2022-12-13T17:48:15.819Z,1006.43
2022-12-13T17:50:15.852Z,1006.43
2022-12-13T17:52:15.829Z,1006.48
2022-12-13T17:54:45.759Z,1006.48
2022-12-13T17:56:45.776Z,1006.48
2022-12-13T17:58:45.794Z,1006.56
2022-12-13T18:00:45.804Z,1006.53
2022-12-13T18:02:55.161Z,1006.51
2022-12-13T18:04:45.837Z,1006.47
2022-12-13T18:06:45.738Z,1006.47
2022-12-13T18:08:45.748Z,1006.37
2022-12-13T18:10:46.105Z,1006.30
2022-12-13T18:12:45.790Z,1006.21
2022-12-13T18:14:45.819Z,1006.11
2022-12-13T18:16:45.798Z,1006.11
2022-12-13T18:18:54.859Z,1006.06
2022-12-13T18:20:45.845Z,1006.18
2022-12-13T18:22:51.114Z,1006.25
2022-12-13T18:24:45.807Z,1006.26
2022-12-13T18:26:45.769Z,1006.26
2022-12-13T18:28:45.819Z,1006.27
2022-12-13T18:30:45.830Z,1006.27
2022-12-13T18:32:45.815Z,1006.14
2022-12-13T18:34:45.857Z,1006.14
2022-12-13T18:36:45.856Z,1006.04
2022-12-13T18:38:45.898Z,1006.00
2022-12-13T18:40:45.790Z,1006.01
2022-12-13T18:42:45.772Z,1006.00
2022-12-13T18:44:54.652Z,1006.00
2022-12-13T18:46:46.192Z,1006.01
2022-12-13T18:48:46.194Z,1005.98
2022-12-13T18:50:48.876Z,1005.90
2022-12-13T18:52:45.790Z,1005.82
2022-12-13T18:54:45.803Z,1005.82
2022-12-13T18:56:45.806Z,1005.93
2022-12-13T18:58:45.830Z,1006.01
2022-12-13T19:00:45.836Z,1006.06
2022-12-13T19:02:45.922Z,1006.06
2022-12-13T19:04:55.405Z,1006.11
2022-12-13T19:06:45.869Z,1006.19
2022-12-13T19:08:45.845Z,1006.29
2022-12-13T19:10:45.785Z,1006.29
2022-12-13T19:12:45.813Z,1006.29
2022-12-13T19:14:45.858Z,1006.33
2022-12-13T19:16:45.950Z,1006.26
2022-12-13T19:18:45.862Z,1006.13
2022-12-13T19:20:45.883Z,1005.96
2022-12-13T19:22:45.915Z,1005.96
2022-12-13T19:24:46.048Z,1005.84
2022-12-13T19:26:45.957Z,1005.74
2022-12-13T19:28:45.850Z,1005.85
2022-12-13T19:30:45.820Z,1005.85
2022-12-13T19:32:48.204Z,1005.81
2022-12-13T19:34:45.864Z,1005.68
2022-12-13T19:36:45.884Z,1005.59
2022-12-13T19:38:45.829Z,1005.53
2022-12-13T19:40:45.810Z,1005.53
2022-12-13T19:43:15.893Z,1005.47
2022-12-13T19:45:15.938Z,1005.49
2022-12-13T19:47:15.884Z,1005.54
2022-12-13T19:49:15.891Z,1005.51
2022-12-13T19:51:15.906Z,1005.51
2022-12-13T19:53:15.791Z,1005.51
2022-12-13T19:55:15.817Z,1005.36
2022-12-13T19:57:15.888Z,1005.26
2022-12-13T19:59:15.853Z,1005.26
2022-12-13T20:01:15.849Z,1005.25
2022-12-13T20:03:15.963Z,1005.10
2022-12-13T20:05:15.912Z,1004.99
2022-12-13T20:07:15.838Z,1004.96
2022-12-13T20:09:15.830Z,1004.96
2022-12-13T20:11:15.837Z,1005.01
2022-12-13T20:13:15.852Z,1005.00
2022-12-13T20:15:15.863Z,1005.08
2022-12-13T20:17:15.766Z,1005.04
2022-12-13T20:19:15.790Z,1005.04
2022-12-13T20:21:15.941Z,1004.97
2022-12-13T20:23:15.810Z,1004.93
2022-12-13T20:25:15.787Z,1004.90
2022-12-13T20:27:15.862Z,1004.90
2022-12-13T20:29:15.778Z,1004.84
2022-12-13T20:31:15.836Z,1004.91
2022-12-13T20:33:15.928Z,1004.91
2022-12-13T20:35:15.794Z,1004.93
2022-12-13T20:37:15.788Z,1004.93
2022-12-13T20:39:16.109Z,1004.87
2022-12-13T20:41:15.862Z,1004.85
2022-12-13T20:43:16.245Z,1004.76
2022-12-13T20:45:16.373Z,1004.75
2022-12-13T20:47:15.812Z,1004.75
2022-12-13T20:49:15.814Z,1004.71
2022-12-13T20:51:15.807Z,1004.76
2022-12-13T20:53:15.843Z,1004.66
2022-12-13T20:55:15.839Z,1004.76
2022-12-13T20:57:16.217Z,1004.76
2022-12-13T20:59:15.885Z,1004.76
2022-12-13T21:01:18.448Z,1004.66
2022-12-13T21:03:16.176Z,1004.67
2022-12-13T21:05:20.558Z,1004.67
2022-12-13T21:07:16.114Z,1004.64
2022-12-13T21:09:15.855Z,1004.64
2022-12-13T21:11:16.560Z,1004.68
2022-12-13T21:13:15.878Z,1004.68
2022-12-13T21:15:15.809Z,1004.68
2022-12-13T21:17:15.926Z,1004.65
2022-12-13T21:19:15.932Z,1004.67
2022-12-13T21:21:15.836Z,1004.68
2022-12-13T21:23:15.850Z,1004.66
2022-12-13T21:25:15.835Z,1004.66
2022-12-13T21:27:15.894Z,1004.60
2022-12-13T21:29:46.554Z,1004.57
2022-12-13T21:31:48.800Z,1004.54
2022-12-13T21:33:45.836Z,1004.52
2022-12-13T21:35:45.813Z,1004.60
2022-12-13T21:37:45.843Z,1004.60
2022-12-13T21:39:45.900Z,1004.55
2022-12-13T21:41:45.900Z,1004.48
2022-12-13T21:43:48.226Z,1004.47
2022-12-13T21:47:45.907Z,1004.41
2022-12-13T21:49:48.786Z,1004.40
2022-12-13T21:55:38.749Z,1004.30
2022-12-13T21:57:24.069Z,1004.30
2022-12-13T21:59:54.109Z,1004.38
2022-12-13T22:01:54.077Z,1004.45
2022-12-13T22:03:54.040Z,1004.45
2022-12-13T22:05:54.035Z,1004.45
2022-12-13T22:07:54.054Z,1004.23
2022-12-13T22:09:54.064Z,1004.11
2022-12-13T22:11:54.059Z,1004.13
2022-12-13T22:13:54.099Z,1004.17
2022-12-13T22:15:54.045Z,1004.17
2022-12-13T22:17:54.038Z,1004.11
2022-12-13T22:19:54.119Z,1004.04
2022-12-13T22:21:54.085Z,1003.99
2022-12-13T22:23:54.070Z,1003.99
2022-12-13T22:25:54.088Z,1003.99
2022-12-13T22:27:54.069Z,1003.97
2022-12-13T22:29:54.053Z,1003.94
2022-12-13T22:31:54.137Z,1003.94
2022-12-13T22:33:54.161Z,1003.94
2022-12-13T22:35:54.080Z,1003.94
2022-12-13T22:37:57.654Z,1003.87
2022-12-13T22:39:54.063Z,1003.86
2022-12-13T22:41:54.061Z,1003.81
2022-12-13T22:43:54.087Z,1003.81
2022-12-13T22:45:54.121Z,1003.84
2022-12-13T22:47:54.085Z,1003.74
2022-12-13T22:49:54.113Z,1003.62
2022-12-13T22:51:54.104Z,1003.59
2022-12-13T22:53:54.080Z,1003.59
2022-12-13T22:55:54.082Z,1003.63
2022-12-13T22:57:54.063Z,1003.62
2022-12-13T22:59:54.063Z,1003.65
2022-12-13T23:01:56.680Z,1003.65
2022-12-13T23:03:54.113Z,1003.57
2022-12-13T23:05:54.072Z,1003.51
2022-12-13T23:07:54.060Z,1003.53
2022-12-13T23:09:54.098Z,1003.61
2022-12-13T23:11:54.089Z,1003.61
2022-12-13T23:13:54.098Z,1003.57
2022-12-13T23:15:54.099Z,1003.57
2022-12-13T23:17:54.096Z,1003.47
2022-12-13T23:19:54.102Z,1003.47
2022-12-13T23:21:54.128Z,1003.47
2022-12-13T23:23:54.096Z,1003.47
2022-12-13T23:25:54.099Z,1003.47
2022-12-13T23:27:54.117Z,1003.39
2022-12-13T23:29:54.095Z,1003.39
2022-12-13T23:31:54.087Z,1003.39
2022-12-13T23:33:54.072Z,1003.31
2022-12-13T23:35:54.189Z,1003.28
2022-12-13T23:37:54.087Z,1003.35
2022-12-13T23:39:54.145Z,1003.35
2022-12-13T23:41:54.093Z,1003.35
2022-12-13T23:43:54.111Z,1003.22
2022-12-13T23:45:54.296Z,1003.25
2022-12-13T23:48:27.074Z,1003.20
2022-12-13T23:50:24.221Z,1003.25
2022-12-13T23:52:24.148Z,1003.31
2022-12-13T23:54:24.109Z,1003.31
2022-12-13T23:56:24.100Z,1003.31
2022-12-13T23:58:24.283Z,1003.21
